createdAt,value
2023-05-19T00:01:49.169Z,3.53
2023-05-19T00:04:37.035Z,3.00
2023-05-19T00:07:26.531Z,2.83
2023-05-19T00:10:14.238Z,3.40
2023-05-19T00:13:01.868Z,2.83
2023-05-19T00:15:49.441Z,2.93
2023-05-19T00:18:36.848Z,3.23
2023-05-19T00:21:24.388Z,3.60
2023-05-19T00:24:12.153Z,3.33
2023-05-19T00:26:59.591Z,2.83
2023-05-19T00:29:46.968Z,3.10
2023-05-19T00:32:34.480Z,2.50
2023-05-19T00:35:21.985Z,2.83
2023-05-19T00:38:09.426Z,3.37
2023-05-19T00:40:56.843Z,2.97
2023-05-19T00:43:44.290Z,3.30
2023-05-19T00:46:31.695Z,3.30
2023-05-19T00:49:19.070Z,3.50
2023-05-19T00:52:07.356Z,4.13
2023-05-19T00:54:56.063Z,4.63
2023-05-19T00:57:43.863Z,4.83
2023-05-19T01:00:31.703Z,4.00
2023-05-19T01:03:20.473Z,3.47
2023-05-19T01:06:08.383Z,3.83
2023-05-19T01:08:57.409Z,3.93
2023-05-19T01:11:44.811Z,4.20
2023-05-19T01:14:32.228Z,3.90
2023-05-19T01:17:20.582Z,4.57
2023-05-19T01:20:18.277Z,3.67
2023-05-19T01:23:08.670Z,3.90
2023-05-19T01:26:08.321Z,4.33
2023-05-19T01:29:14.673Z,4.57
2023-05-19T01:32:04.792Z,4.53
2023-05-19T01:34:53.466Z,4.20
2023-05-19T01:37:41.905Z,4.20
2023-05-19T01:40:29.905Z,4.43
2023-05-19T01:43:19.017Z,4.23
2023-05-19T01:46:07.443Z,4.13
2023-05-19T01:48:55.478Z,4.30
2023-05-19T01:51:42.919Z,4.50
2023-05-19T01:54:30.372Z,4.47
2023-05-19T01:57:28.944Z,4.33
2023-05-19T02:00:16.855Z,5.13
2023-05-19T02:03:23.480Z,4.43
2023-05-19T02:06:31.511Z,4.70
2023-05-19T02:09:39.627Z,4.27
2023-05-19T02:12:29.527Z,4.30
2023-05-19T02:15:18.060Z,4.00
2023-05-19T02:18:06.127Z,5.00
2023-05-19T02:20:53.558Z,5.10
2023-05-19T02:23:44.473Z,5.30
2023-05-19T02:26:31.899Z,4.13
2023-05-19T02:29:19.696Z,4.37
2023-05-19T02:32:07.455Z,4.70
2023-05-19T02:34:56.440Z,4.73
2023-05-19T02:37:44.310Z,6.37
2023-05-19T02:40:31.975Z,9.63
2023-05-19T02:43:19.832Z,8.13
2023-05-19T02:46:07.282Z,8.30
2023-05-19T02:48:54.691Z,5.97
2023-05-19T02:51:42.085Z,5.03
2023-05-19T02:54:31.051Z,5.77
2023-05-19T02:57:18.538Z,5.30
2023-05-19T03:00:06.772Z,5.70
2023-05-19T03:02:54.520Z,5.57
2023-05-19T03:05:42.214Z,5.93
2023-05-19T03:08:29.823Z,8.23
2023-05-19T03:11:17.377Z,6.70
2023-05-19T03:14:04.857Z,7.17
2023-05-19T03:16:52.860Z,4.67
2023-05-19T03:19:41.359Z,5.03
2023-05-19T03:22:28.759Z,5.30
2023-05-19T03:25:16.256Z,4.70
2023-05-19T03:28:03.657Z,4.27
2023-05-19T03:30:51.146Z,4.30
2023-05-19T03:33:38.674Z,4.80
2023-05-19T03:36:31.841Z,4.33
2023-05-19T03:39:19.260Z,4.77
2023-05-19T03:42:06.838Z,4.73
2023-05-19T03:44:54.267Z,4.33
2023-05-19T03:47:41.984Z,4.23
2023-05-19T03:50:31.689Z,4.90
2023-05-19T03:53:19.693Z,4.80
2023-05-19T03:56:07.655Z,3.83
2023-05-19T03:58:55.312Z,4.20
2023-05-19T04:01:42.706Z,4.47
2023-05-19T04:04:30.666Z,4.33
2023-05-19T04:07:18.085Z,4.20
2023-05-19T04:10:06.008Z,4.37
2023-05-19T04:12:53.391Z,4.37
2023-05-19T04:15:41.355Z,4.50
2023-05-19T04:18:29.378Z,4.70
2023-05-19T04:21:17.000Z,3.97
2023-05-19T04:24:06.254Z,4.77
2023-05-19T04:26:53.744Z,4.47
2023-05-19T04:29:41.178Z,4.67
2023-05-19T04:32:29.235Z,4.17
2023-05-19T04:35:17.570Z,4.77
2023-05-19T04:38:04.955Z,4.43
2023-05-19T04:40:52.426Z,4.10
2023-05-19T04:43:41.823Z,5.93
2023-05-19T04:46:30.224Z,7.67
2023-05-19T04:49:19.359Z,6.70
2023-05-19T04:52:12.764Z,5.80
2023-05-19T04:55:00.202Z,5.70
2023-05-19T04:57:47.620Z,7.20
2023-05-19T05:00:38.159Z,5.63
2023-05-19T05:03:26.510Z,5.90
2023-05-19T05:06:14.073Z,6.00
2023-05-19T05:09:03.515Z,5.63
2023-05-19T05:11:51.554Z,4.67
2023-05-19T05:14:40.113Z,4.67
2023-05-19T05:17:28.246Z,4.60
2023-05-19T05:20:15.972Z,5.10
2023-05-19T05:23:03.487Z,5.47
2023-05-19T05:25:51.043Z,4.33
2023-05-19T05:28:38.426Z,4.70
2023-05-19T05:31:25.903Z,4.67
2023-05-19T05:34:13.357Z,4.63
2023-05-19T05:37:00.805Z,5.30
2023-05-19T05:39:48.208Z,4.20
2023-05-19T05:42:35.590Z,4.37
2023-05-19T05:45:26.176Z,4.33
2023-05-19T05:48:13.839Z,4.27
2023-05-19T05:51:01.577Z,4.80
2023-05-19T05:53:52.529Z,4.27
2023-05-19T05:56:41.081Z,4.50
2023-05-19T05:59:28.499Z,4.67
2023-05-19T06:02:16.431Z,3.80
2023-05-19T06:05:03.949Z,4.13
2023-05-19T06:07:51.412Z,5.10
2023-05-19T06:10:41.647Z,3.97
2023-05-19T06:13:29.023Z,3.60
2023-05-19T06:16:16.532Z,3.90
2023-05-19T06:19:04.048Z,3.50
2023-05-19T06:21:52.008Z,3.30
2023-05-19T06:24:39.662Z,3.37
2023-05-19T06:27:27.160Z,3.17
2023-05-19T06:30:14.690Z,3.27
2023-05-19T06:33:03.238Z,3.20
2023-05-19T06:35:50.853Z,3.30
2023-05-19T06:38:38.238Z,3.60
2023-05-19T06:41:25.681Z,3.17
2023-05-19T06:44:13.077Z,3.33
2023-05-19T06:47:00.589Z,3.70
2023-05-19T06:49:54.942Z,3.83
2023-05-19T06:52:42.688Z,3.47
2023-05-19T06:55:30.072Z,3.53
2023-05-19T06:58:17.558Z,3.17
2023-05-19T07:01:04.966Z,3.67
2023-05-19T07:03:52.590Z,3.40
2023-05-19T07:06:40.147Z,3.00
2023-05-19T07:09:27.539Z,3.60
2023-05-19T07:12:14.905Z,3.57
2023-05-19T07:15:02.422Z,3.23
2023-05-19T07:17:49.879Z,3.20
2023-05-19T07:20:37.275Z,3.30
2023-05-19T07:23:24.689Z,2.90
2023-05-19T07:26:12.100Z,3.17
2023-05-19T07:28:59.580Z,3.33
2023-05-19T07:31:47.089Z,2.63
2023-05-19T07:34:34.623Z,3.43
2023-05-19T07:37:22.141Z,2.90
2023-05-19T07:40:10.142Z,2.73
2023-05-19T07:42:57.534Z,3.00
2023-05-19T07:45:44.942Z,2.67
2023-05-19T07:48:32.403Z,2.70
2023-05-19T07:51:19.831Z,2.97
2023-05-19T07:54:08.293Z,3.33
2023-05-19T07:56:55.980Z,2.55
2023-05-19T07:59:43.392Z,3.15
2023-05-19T08:02:30.822Z,2.47
2023-05-19T08:05:18.330Z,3.03
2023-05-19T08:08:05.924Z,3.10
2023-05-19T08:10:53.291Z,2.95
2023-05-19T08:13:41.004Z,3.28
2023-05-19T08:16:28.553Z,2.80
2023-05-19T08:19:16.161Z,2.65
2023-05-19T08:22:03.775Z,2.45
2023-05-19T08:24:51.771Z,2.33
2023-05-19T08:27:39.254Z,2.90
2023-05-19T08:30:26.676Z,2.55
2023-05-19T08:33:14.133Z,2.55
2023-05-19T08:36:01.629Z,2.50
2023-05-19T08:38:49.036Z,2.25
2023-05-19T08:41:36.507Z,2.38
2023-05-19T08:44:23.974Z,2.33
2023-05-19T08:47:14.719Z,3.13
2023-05-19T08:50:10.922Z,2.10
2023-05-19T08:53:25.030Z,2.63
2023-05-19T08:56:23.971Z,2.65
2023-05-19T08:59:12.061Z,2.75
2023-05-19T09:01:59.574Z,2.45
2023-05-19T09:04:48.032Z,2.42
2023-05-19T09:07:38.173Z,2.22
2023-05-19T09:10:27.093Z,2.55
2023-05-19T09:13:15.811Z,2.83
2023-05-19T09:16:03.634Z,2.60
2023-05-19T09:18:56.039Z,2.25
2023-05-19T09:21:45.596Z,2.47
2023-05-19T09:24:34.443Z,2.38
2023-05-19T09:27:23.514Z,2.70
2023-05-19T09:30:11.072Z,2.47
2023-05-19T09:32:58.890Z,2.88
2023-05-19T09:35:49.306Z,2.25
2023-05-19T09:38:37.478Z,2.60
2023-05-19T09:41:26.313Z,2.10
2023-05-19T09:44:34.131Z,2.58
2023-05-19T09:47:21.673Z,2.40
2023-05-19T09:50:10.283Z,3.50
2023-05-19T09:52:58.427Z,2.80
2023-05-19T09:55:46.559Z,2.50
2023-05-19T09:58:37.640Z,2.70
2023-05-19T10:01:25.983Z,2.55
2023-05-19T10:04:13.937Z,2.50
2023-05-19T10:07:05.364Z,2.80
2023-05-19T10:09:53.772Z,2.63
2023-05-19T10:12:41.847Z,3.22
2023-05-19T10:15:29.317Z,2.30
2023-05-19T10:18:18.720Z,2.42
2023-05-19T10:21:07.216Z,2.55
2023-05-19T10:23:55.019Z,2.63
2023-05-19T10:26:44.765Z,2.70
2023-05-19T10:29:33.942Z,2.97
2023-05-19T10:32:24.019Z,2.55
2023-05-19T10:35:17.818Z,2.80
2023-05-19T10:38:25.099Z,2.78
2023-05-19T10:41:27.659Z,2.58
2023-05-19T10:44:32.107Z,2.65
2023-05-19T10:47:28.867Z,2.50
2023-05-19T10:50:17.339Z,2.15
2023-05-19T10:53:04.723Z,2.47
2023-05-19T10:55:53.267Z,2.67
2023-05-19T10:58:41.462Z,2.53
2023-05-19T11:01:33.196Z,2.53
2023-05-19T11:04:38.883Z,2.47
2023-05-19T11:07:26.456Z,2.50
2023-05-19T11:10:14.115Z,2.90
2023-05-19T11:13:01.581Z,2.40
2023-05-19T11:15:49.854Z,2.55
2023-05-19T11:18:38.268Z,2.92
2023-05-19T11:21:41.474Z,2.78
2023-05-19T11:24:39.996Z,3.13
2023-05-19T11:27:27.600Z,3.05
2023-05-19T11:30:17.608Z,2.47
2023-05-19T11:33:05.844Z,2.80
2023-05-19T11:35:54.447Z,2.42
2023-05-19T11:38:43.061Z,2.42
2023-05-19T11:41:30.976Z,2.53
2023-05-19T11:44:18.401Z,2.22
2023-05-19T11:47:06.349Z,2.53
2023-05-19T11:49:57.377Z,2.42
2023-05-19T11:52:45.370Z,2.40
2023-05-19T11:55:32.843Z,2.60
2023-05-19T11:58:26.757Z,2.28
2023-05-19T12:01:14.318Z,2.40
2023-05-19T12:04:01.998Z,2.35
2023-05-19T12:06:49.874Z,2.92
2023-05-19T12:09:37.289Z,2.50
2023-05-19T12:12:24.664Z,2.30
2023-05-19T12:15:12.416Z,2.42
2023-05-19T12:18:00.939Z,2.53
2023-05-19T12:20:48.445Z,2.17
2023-05-19T12:23:36.558Z,2.85
2023-05-19T12:26:24.035Z,2.20
2023-05-19T12:29:13.568Z,2.45
2023-05-19T12:32:02.993Z,2.20
2023-05-19T12:34:50.814Z,2.35
2023-05-19T12:37:42.561Z,2.50
2023-05-19T12:40:30.673Z,2.55
2023-05-19T12:43:21.987Z,2.40
2023-05-19T12:46:12.714Z,2.38
2023-05-19T12:49:02.985Z,2.00
2023-05-19T12:51:53.960Z,2.70
2023-05-19T12:54:41.402Z,2.83
2023-05-19T12:57:32.075Z,2.50
2023-05-19T13:00:21.017Z,2.40
2023-05-19T13:03:10.256Z,2.33
2023-05-19T13:05:59.632Z,2.88
2023-05-19T13:08:47.249Z,2.33
2023-05-19T13:11:35.059Z,2.53
2023-05-19T13:14:22.503Z,2.20
2023-05-19T13:17:10.039Z,2.20
2023-05-19T13:19:57.656Z,2.50
2023-05-19T13:22:45.265Z,2.35
2023-05-19T13:25:35.687Z,2.42
2023-05-19T13:28:23.331Z,2.40
2023-05-19T13:31:10.814Z,2.50
2023-05-19T13:33:58.274Z,2.20
2023-05-19T13:36:48.090Z,2.33
2023-05-19T13:39:35.987Z,2.00
2023-05-19T13:42:23.379Z,2.25
2023-05-19T13:45:10.929Z,2.50
2023-05-19T13:47:58.476Z,2.13
2023-05-19T13:50:45.936Z,2.63
2023-05-19T13:53:34.551Z,2.45
2023-05-19T13:56:22.022Z,2.35
2023-05-19T13:59:09.472Z,2.20
2023-05-19T14:01:57.067Z,2.70
2023-05-19T14:04:44.535Z,2.50
2023-05-19T14:07:34.626Z,2.25
2023-05-19T14:10:22.141Z,2.30
2023-05-19T14:13:29.696Z,2.38
2023-05-19T14:16:18.785Z,2.33
2023-05-19T14:19:06.237Z,2.60
2023-05-19T14:21:53.754Z,2.13
2023-05-19T14:24:41.513Z,2.13
2023-05-19T14:27:28.961Z,1.90
2023-05-19T14:30:16.405Z,2.10
2023-05-19T14:33:03.939Z,1.80
2023-05-19T14:35:51.614Z,2.15
2023-05-19T14:38:39.079Z,2.13
2023-05-19T14:41:26.676Z,2.22
2023-05-19T14:44:14.108Z,2.38
2023-05-19T14:47:02.662Z,2.08
2023-05-19T14:49:50.168Z,1.90
2023-05-19T14:52:37.600Z,2.15
2023-05-19T14:55:25.168Z,1.77
2023-05-19T14:58:27.529Z,1.90
2023-05-19T15:01:15.994Z,1.95
2023-05-19T15:04:03.426Z,1.92
2023-05-19T15:07:05.730Z,1.90
2023-05-19T15:09:57.077Z,1.63
2023-05-19T15:12:44.513Z,1.80
2023-05-19T15:15:31.995Z,1.60
2023-05-19T15:18:19.484Z,1.80
2023-05-19T15:21:06.907Z,1.63
2023-05-19T15:23:54.329Z,1.38
2023-05-19T15:26:41.739Z,1.65
2023-05-19T15:29:29.388Z,1.83
2023-05-19T15:32:16.816Z,2.58
2023-05-19T15:35:04.402Z,1.75
2023-05-19T15:37:51.789Z,1.60
2023-05-19T15:40:42.697Z,1.98
2023-05-19T15:43:30.201Z,2.00
2023-05-19T15:46:19.498Z,2.00
2023-05-19T15:49:07.074Z,2.28
2023-05-19T15:51:54.466Z,1.95
2023-05-19T15:54:42.047Z,1.98
2023-05-19T15:57:29.501Z,1.83
2023-05-19T16:00:16.898Z,1.98
2023-05-19T16:03:04.399Z,2.10
2023-05-19T16:05:53.581Z,2.10
2023-05-19T16:08:41.090Z,2.30
2023-05-19T16:11:28.498Z,2.10
2023-05-19T16:14:15.940Z,2.50
2023-05-19T16:17:03.798Z,2.03
2023-05-19T16:19:51.178Z,2.30
2023-05-19T16:22:38.647Z,2.25
2023-05-19T16:25:26.161Z,2.13
2023-05-19T16:28:14.516Z,2.28
2023-05-19T16:31:01.953Z,2.70
2023-05-19T16:33:49.514Z,2.35
2023-05-19T16:36:37.192Z,2.50
2023-05-19T16:39:24.623Z,2.58
2023-05-19T16:42:12.036Z,2.33
2023-05-19T16:44:59.396Z,2.67
2023-05-19T16:47:46.805Z,2.35
2023-05-19T16:50:34.475Z,2.40
2023-05-19T16:53:22.232Z,1.87
2023-05-19T16:56:09.781Z,1.67
2023-05-19T16:58:57.155Z,2.03
2023-05-19T17:01:44.917Z,2.60
2023-05-19T17:04:32.353Z,1.95
2023-05-19T17:07:19.740Z,1.70
2023-05-19T17:10:07.341Z,1.80
2023-05-19T17:12:54.732Z,1.83
2023-05-19T17:15:43.367Z,1.90
2023-05-19T17:18:31.353Z,2.10
2023-05-19T17:21:18.921Z,1.80
2023-05-19T17:24:06.743Z,1.90
2023-05-19T17:26:54.127Z,1.70
2023-05-19T17:29:41.670Z,1.80
2023-05-19T17:32:35.583Z,2.07
2023-05-19T17:35:23.169Z,1.97
2023-05-19T17:38:10.625Z,1.57
2023-05-19T17:40:58.939Z,1.80
2023-05-19T17:43:46.377Z,1.97
2023-05-19T17:46:38.771Z,1.93
2023-05-19T17:49:26.336Z,1.50
2023-05-19T17:52:13.911Z,1.57
2023-05-19T17:55:01.506Z,1.63
2023-05-19T17:57:49.145Z,1.80
2023-05-19T18:00:36.646Z,1.83
2023-05-19T18:03:24.339Z,1.80
2023-05-19T18:06:12.719Z,1.70
2023-05-19T18:09:01.884Z,1.93
2023-05-19T18:11:49.311Z,1.73
2023-05-19T18:14:36.727Z,1.90
2023-05-19T18:17:24.118Z,1.63
2023-05-19T18:20:11.965Z,2.03
2023-05-19T18:22:59.448Z,1.90
2023-05-19T18:25:51.659Z,2.07
2023-05-19T18:28:39.668Z,1.90
2023-05-19T18:31:27.119Z,1.83
2023-05-19T18:34:14.556Z,1.60
2023-05-19T18:37:02.125Z,2.37
2023-05-19T18:39:49.515Z,2.00
2023-05-19T18:42:37.687Z,1.87
2023-05-19T18:45:25.058Z,2.03
2023-05-19T18:48:12.825Z,1.70
2023-05-19T18:51:00.500Z,1.53
2023-05-19T18:53:49.313Z,1.93
2023-05-19T18:56:36.790Z,2.13
2023-05-19T18:59:25.706Z,2.30
2023-05-19T19:02:13.066Z,1.73
2023-05-19T19:05:00.461Z,1.90
2023-05-19T19:07:47.918Z,2.00
2023-05-19T19:10:38.973Z,1.70
2023-05-19T19:13:26.406Z,1.90
2023-05-19T19:16:13.793Z,1.90
2023-05-19T19:19:02.049Z,1.97
2023-05-19T19:21:49.600Z,2.00
2023-05-19T19:24:36.964Z,2.00
2023-05-19T19:27:26.191Z,1.60
2023-05-19T19:30:13.646Z,2.03
2023-05-19T19:33:01.097Z,2.20
2023-05-19T19:35:48.653Z,1.80
2023-05-19T19:38:36.288Z,1.83
2023-05-19T19:41:25.195Z,2.03
2023-05-19T19:44:13.526Z,2.03
2023-05-19T19:47:00.920Z,1.90
2023-05-19T19:49:49.146Z,1.93
2023-05-19T19:52:36.627Z,2.07
2023-05-19T19:55:24.014Z,2.03
2023-05-19T19:58:11.391Z,1.77
2023-05-19T20:01:05.979Z,2.10
2023-05-19T20:03:54.588Z,2.20
2023-05-19T20:06:42.053Z,1.77
2023-05-19T20:09:29.425Z,1.70
2023-05-19T20:12:16.902Z,2.30
2023-05-19T20:15:04.427Z,1.93
2023-05-19T20:17:51.844Z,2.03
2023-05-19T20:20:39.684Z,2.10
2023-05-19T20:23:27.134Z,1.90
2023-05-19T20:26:14.836Z,1.73
2023-05-19T20:29:02.378Z,1.90
2023-05-19T20:31:49.933Z,1.93
2023-05-19T20:34:37.550Z,1.87
2023-05-19T20:37:24.985Z,2.10
2023-05-19T20:40:12.737Z,1.80
2023-05-19T20:43:00.182Z,1.70
2023-05-19T20:45:47.586Z,1.70
2023-05-19T20:48:34.987Z,1.77
2023-05-19T20:51:24.993Z,1.80
2023-05-19T20:54:12.407Z,1.60
2023-05-19T20:56:59.853Z,1.63
2023-05-19T20:59:47.279Z,1.50
2023-05-19T21:02:34.715Z,1.50
2023-05-19T21:05:22.137Z,1.50
2023-05-19T21:08:12.657Z,1.70
2023-05-19T21:11:00.391Z,1.57
2023-05-19T21:13:47.786Z,1.50
2023-05-19T21:16:38.576Z,1.60
2023-05-19T21:19:26.157Z,1.50
2023-05-19T21:22:13.631Z,1.70
2023-05-19T21:25:01.049Z,1.50
2023-05-19T21:27:48.521Z,1.60
2023-05-19T21:30:35.992Z,1.30
2023-05-19T21:33:23.524Z,1.43
2023-05-19T21:36:10.916Z,1.87
2023-05-19T21:38:58.328Z,1.57
2023-05-19T21:41:45.771Z,1.53
2023-05-19T21:44:33.201Z,1.53
2023-05-19T21:47:20.651Z,1.60
2023-05-19T21:50:08.336Z,1.60
2023-05-19T21:52:55.781Z,1.43
2023-05-19T21:55:43.918Z,1.57
2023-05-19T21:58:31.292Z,1.60
2023-05-19T22:01:18.847Z,1.43
2023-05-19T22:04:06.509Z,1.60
2023-05-19T22:06:53.896Z,1.67
2023-05-19T22:09:41.373Z,1.73
2023-05-19T22:12:28.922Z,1.50
2023-05-19T22:15:16.399Z,1.70
2023-05-19T22:18:03.838Z,1.60
2023-05-19T22:20:51.291Z,1.47
2023-05-19T22:23:38.704Z,1.47
2023-05-19T22:26:27.092Z,1.90
2023-05-19T22:29:18.328Z,1.77
2023-05-19T22:32:07.548Z,1.50
2023-05-19T22:34:55.026Z,1.40
2023-05-19T22:37:42.457Z,1.20
2023-05-19T22:40:29.872Z,1.60
2023-05-19T22:43:17.271Z,2.00
2023-05-19T22:46:04.796Z,1.30
2023-05-19T22:48:52.204Z,1.40
2023-05-19T22:51:39.679Z,1.60
2023-05-19T22:54:27.123Z,1.60
2023-05-19T22:57:14.564Z,1.60
2023-05-19T23:00:02.033Z,1.57
2023-05-19T23:02:49.521Z,1.50
2023-05-19T23:05:36.954Z,2.00
2023-05-19T23:08:24.346Z,3.37
2023-05-19T23:11:11.941Z,4.33
2023-05-19T23:13:59.361Z,2.63
2023-05-19T23:16:46.881Z,2.73
2023-05-19T23:19:36.388Z,1.60
2023-05-19T23:22:23.767Z,1.50
2023-05-19T23:25:11.164Z,1.73
2023-05-19T23:27:58.540Z,1.53
2023-05-19T23:30:45.935Z,1.50
2023-05-19T23:33:33.331Z,1.67
2023-05-19T23:36:20.878Z,1.50
2023-05-19T23:39:08.315Z,1.43
2023-05-19T23:41:56.237Z,1.50
2023-05-19T23:44:43.727Z,1.53
2023-05-19T23:47:31.147Z,1.70
2023-05-19T23:50:18.708Z,1.60
2023-05-19T23:53:06.257Z,1.53
2023-05-19T23:55:53.621Z,1.50
2023-05-19T23:58:41.060Z,1.50
